createdAt,value
2022-12-03T00:00:23.002Z,1.90
2022-12-03T00:05:21.703Z,1.93
2022-12-03T00:10:20.475Z,1.74
2022-12-03T00:15:19.261Z,2.02
2022-12-03T00:20:21.272Z,1.91
2022-12-03T00:25:20.163Z,2.05
2022-12-03T00:30:18.976Z,2.08
2022-12-03T00:35:17.780Z,2.04
2022-12-03T00:40:16.575Z,1.92
2022-12-03T00:45:15.430Z,1.90
2022-12-03T00:50:14.237Z,1.90
2022-12-03T00:55:13.118Z,1.67
2022-12-03T01:00:13.476Z,1.73
2022-12-03T01:05:12.277Z,1.88
2022-12-03T01:10:11.642Z,2.26
2022-12-03T01:15:10.727Z,2.20
2022-12-03T01:20:10.206Z,1.93
2022-12-03T01:25:09.385Z,2.17
2022-12-03T01:30:08.547Z,2.31
2022-12-03T01:35:07.704Z,2.19
2022-12-03T01:40:08.404Z,2.35
2022-12-03T01:45:11.335Z,1.94
2022-12-03T01:50:42.210Z,2.48
2022-12-03T01:55:46.954Z,2.59
2022-12-03T02:00:47.414Z,2.37
2022-12-03T02:05:46.144Z,2.19
2022-12-03T02:10:44.873Z,2.17
2022-12-03T02:15:43.841Z,2.33
2022-12-03T02:20:59.278Z,2.03
2022-12-03T02:25:57.955Z,2.16
2022-12-03T02:30:56.752Z,2.24
2022-12-03T02:36:00.419Z,2.13
2022-12-03T02:41:10.890Z,2.20
2022-12-03T02:46:09.611Z,1.68
2022-12-03T02:51:10.331Z,2.05
2022-12-03T02:56:09.987Z,1.98
2022-12-03T03:01:09.781Z,1.57
2022-12-03T03:06:09.407Z,1.88
2022-12-03T03:11:08.508Z,1.62
2022-12-03T03:16:08.246Z,2.23
2022-12-03T03:21:07.719Z,2.19
2022-12-03T03:26:08.792Z,2.07
2022-12-03T03:31:09.528Z,1.98
2022-12-03T03:36:09.397Z,2.17
2022-12-03T03:41:11.258Z,1.70
2022-12-03T03:46:11.252Z,2.41
2022-12-03T03:51:12.446Z,2.15
2022-12-03T03:56:12.048Z,2.13
2022-12-03T04:01:13.258Z,1.82
2022-12-03T04:06:12.062Z,1.98
2022-12-03T04:11:29.318Z,1.89
2022-12-03T04:16:28.032Z,2.01
2022-12-03T04:21:45.230Z,1.94
2022-12-03T04:27:02.556Z,2.13
2022-12-03T04:32:19.928Z,2.41
2022-12-03T04:37:18.781Z,2.32
2022-12-03T04:42:17.612Z,2.36
2022-12-03T04:47:21.616Z,2.78
2022-12-03T04:52:21.132Z,2.71
2022-12-03T04:57:19.853Z,2.59
2022-12-03T05:02:18.670Z,2.45
2022-12-03T05:07:17.449Z,2.64
2022-12-03T05:12:16.171Z,2.47
2022-12-03T05:17:14.882Z,2.25
2022-12-03T05:22:13.568Z,7.57
2022-12-03T05:27:12.272Z,9.48
2022-12-03T05:32:11.019Z,5.39
2022-12-03T05:37:09.921Z,4.12
2022-12-03T05:42:28.539Z,3.02
2022-12-03T05:47:27.903Z,2.36
2022-12-03T05:52:26.628Z,2.52
2022-12-03T05:57:26.156Z,2.22
2022-12-03T06:02:24.953Z,1.97
2022-12-03T06:07:23.760Z,1.92
2022-12-03T06:12:22.643Z,2.01
2022-12-03T06:17:21.957Z,1.97
2022-12-03T06:22:20.802Z,2.15
2022-12-03T06:27:19.553Z,2.14
2022-12-03T06:32:18.314Z,2.16
2022-12-03T06:37:16.997Z,2.07
2022-12-03T06:42:15.767Z,1.99
2022-12-03T06:47:14.543Z,2.00
2022-12-03T06:52:13.295Z,2.12
2022-12-03T06:57:12.072Z,1.99
2022-12-03T07:02:12.682Z,1.79
2022-12-03T07:07:11.492Z,1.94
2022-12-03T07:12:11.016Z,1.67
2022-12-03T07:17:09.715Z,2.22
2022-12-03T07:22:08.552Z,2.05
2022-12-03T07:27:07.641Z,2.06
2022-12-03T07:32:06.387Z,1.63
2022-12-03T07:37:05.094Z,1.89
2022-12-03T07:42:04.001Z,1.80
2022-12-03T07:47:02.958Z,1.74
2022-12-03T07:52:01.843Z,1.91
2022-12-03T07:57:01.789Z,1.88
2022-12-03T08:02:00.894Z,2.24
2022-12-03T08:06:59.883Z,2.21
2022-12-03T08:12:01.403Z,2.03
2022-12-03T08:17:00.181Z,2.23
2022-12-03T08:22:01.532Z,1.79
2022-12-03T08:27:01.010Z,2.35
2022-12-03T08:31:59.870Z,2.79
2022-12-03T08:37:09.002Z,2.10
2022-12-03T08:42:30.528Z,2.27
2022-12-03T08:47:29.582Z,2.33
2022-12-03T08:52:33.533Z,2.49
2022-12-03T08:57:34.898Z,2.08
2022-12-03T09:02:34.664Z,2.35
2022-12-03T09:07:33.549Z,2.68
2022-12-03T09:12:32.402Z,2.60
2022-12-03T09:17:31.111Z,2.82
2022-12-03T09:22:29.989Z,2.57
2022-12-03T09:27:28.680Z,2.61
2022-12-03T09:32:27.507Z,2.52
2022-12-03T09:37:26.349Z,2.40
2022-12-03T09:42:25.972Z,2.13
2022-12-03T09:47:25.311Z,2.61
2022-12-03T09:52:28.945Z,2.47
2022-12-03T09:57:27.697Z,2.37
2022-12-03T10:02:29.926Z,2.47
2022-12-03T10:07:28.764Z,2.76
2022-12-03T10:12:27.777Z,2.21
2022-12-03T10:17:29.080Z,2.84
2022-12-03T10:22:27.865Z,2.62
2022-12-03T10:27:30.711Z,2.68
2022-12-03T10:32:42.023Z,2.91
2022-12-03T10:38:02.716Z,3.06
2022-12-03T10:43:19.608Z,3.22
2022-12-03T10:48:27.536Z,3.42
2022-12-03T10:53:30.201Z,3.36
2022-12-03T10:58:36.297Z,3.29
2022-12-03T11:03:36.366Z,3.08
2022-12-03T11:08:37.096Z,2.93
2022-12-03T11:13:35.851Z,3.24
2022-12-03T11:18:37.724Z,3.53
2022-12-03T11:23:45.614Z,3.58
2022-12-03T11:28:47.379Z,3.38
2022-12-03T11:33:46.083Z,3.54
2022-12-03T11:38:52.898Z,3.40
2022-12-03T11:43:52.498Z,3.38
2022-12-03T11:48:53.339Z,3.48
2022-12-03T11:53:55.258Z,3.70
2022-12-03T11:59:02.309Z,3.36
2022-12-03T12:04:01.268Z,3.31
2022-12-03T12:09:01.079Z,3.34
2022-12-03T12:14:12.955Z,3.65
2022-12-03T12:19:38.014Z,3.75
2022-12-03T12:24:43.560Z,3.39
2022-12-03T12:29:45.768Z,2.93
2022-12-03T12:34:50.429Z,3.90
2022-12-03T12:39:53.724Z,3.59
2022-12-03T12:44:52.556Z,3.59
2022-12-03T12:49:52.009Z,3.85
2022-12-03T12:54:50.865Z,3.42
2022-12-03T12:59:50.835Z,3.20
2022-12-03T13:04:49.662Z,3.44
2022-12-03T13:09:54.663Z,3.72
2022-12-03T13:14:59.341Z,3.38
2022-12-03T13:20:07.255Z,3.45
2022-12-03T13:25:59.223Z,3.54
2022-12-03T13:31:00.947Z,3.47
2022-12-03T13:35:59.567Z,3.63
2022-12-03T13:41:03.799Z,3.87
2022-12-03T13:46:03.215Z,3.82
2022-12-03T13:51:14.889Z,4.03
2022-12-03T13:56:30.908Z,3.96
2022-12-03T14:01:30.293Z,4.37
2022-12-03T14:06:29.086Z,3.92
2022-12-03T14:11:46.556Z,4.27
2022-12-03T14:16:45.357Z,4.15
2022-12-03T14:21:44.160Z,4.28
2022-12-03T14:26:42.907Z,4.20
2022-12-03T14:31:41.807Z,4.45
2022-12-03T14:36:40.569Z,3.99
2022-12-03T14:41:57.774Z,4.10
2022-12-03T14:46:57.494Z,3.70
2022-12-03T14:51:56.468Z,3.94
2022-12-03T14:56:55.221Z,4.07
2022-12-03T15:01:54.453Z,3.86
2022-12-03T15:06:53.395Z,4.03
2022-12-03T15:11:52.243Z,4.20
2022-12-03T15:16:51.120Z,4.31
2022-12-03T15:21:49.949Z,3.96
2022-12-03T15:26:49.625Z,4.00
2022-12-03T15:31:48.421Z,3.74
2022-12-03T15:36:47.210Z,3.90
2022-12-03T15:41:46.011Z,3.78
2022-12-03T15:46:44.999Z,3.93
2022-12-03T15:51:43.900Z,4.06
2022-12-03T15:56:42.770Z,3.87
2022-12-03T16:01:41.828Z,3.86
2022-12-03T16:06:40.624Z,3.94
2022-12-03T16:11:39.795Z,4.09
2022-12-03T16:16:38.939Z,4.01
2022-12-03T16:21:38.707Z,3.89
2022-12-03T16:26:37.969Z,3.80
2022-12-03T16:31:37.105Z,4.13
2022-12-03T16:36:36.871Z,4.14
2022-12-03T16:41:35.637Z,4.13
2022-12-03T16:46:37.296Z,4.22
2022-12-03T16:51:36.343Z,4.22
2022-12-03T16:56:35.249Z,4.24
2022-12-03T17:01:34.362Z,3.80
2022-12-03T17:06:36.678Z,4.02
2022-12-03T17:11:37.978Z,4.20
2022-12-03T17:16:36.909Z,4.18
2022-12-03T17:21:35.886Z,4.21
2022-12-03T17:26:34.857Z,4.29
2022-12-03T17:31:39.958Z,4.22
2022-12-03T17:36:40.760Z,4.09
2022-12-03T17:41:39.469Z,4.01
2022-12-03T17:46:39.217Z,4.10
2022-12-03T17:51:41.379Z,3.74
2022-12-03T17:56:43.577Z,3.93
2022-12-03T18:01:43.776Z,4.07
2022-12-03T18:06:43.168Z,4.13
2022-12-03T18:11:42.094Z,3.85
2022-12-03T18:16:41.411Z,3.86
2022-12-03T18:21:40.418Z,3.91
2022-12-03T18:26:54.428Z,4.18
2022-12-03T18:31:53.323Z,4.16
2022-12-03T18:36:52.621Z,3.65
2022-12-03T18:41:52.112Z,3.93
2022-12-03T18:46:53.859Z,3.76
2022-12-03T18:51:58.927Z,4.01
2022-12-03T18:56:57.966Z,4.28
2022-12-03T19:01:56.849Z,4.15
2022-12-03T19:06:55.775Z,3.66
2022-12-03T19:11:54.665Z,3.84
2022-12-03T19:16:53.548Z,4.09
2022-12-03T19:21:52.669Z,4.22
2022-12-03T19:26:54.813Z,4.35
2022-12-03T19:31:53.973Z,4.44
2022-12-03T19:36:52.960Z,4.23
2022-12-03T19:41:54.611Z,4.23
2022-12-03T19:46:54.237Z,4.28
2022-12-03T19:51:53.831Z,4.18
2022-12-03T19:56:52.746Z,4.53
2022-12-03T20:01:51.655Z,4.38
2022-12-03T20:06:50.636Z,4.24
2022-12-03T20:11:54.483Z,4.36
2022-12-03T20:16:53.496Z,3.97
2022-12-03T20:21:54.379Z,4.33
2022-12-03T20:26:55.418Z,4.39
2022-12-03T20:31:54.229Z,4.06
2022-12-03T20:36:53.094Z,4.20
2022-12-03T20:41:52.040Z,4.19
2022-12-03T20:46:50.826Z,4.39
2022-12-03T20:51:50.295Z,4.09
2022-12-03T20:56:49.386Z,4.46
2022-12-03T21:01:48.231Z,4.50
2022-12-03T21:06:47.038Z,4.32
2022-12-03T21:11:45.877Z,4.55
2022-12-03T21:22:08.188Z,4.54
2022-12-03T21:27:06.920Z,4.17
2022-12-03T21:32:05.658Z,4.29
2022-12-03T21:37:04.602Z,4.02
2022-12-03T21:42:19.123Z,4.05
2022-12-03T21:47:22.526Z,4.09
2022-12-03T21:52:21.253Z,4.34
2022-12-03T21:57:20.361Z,4.21
2022-12-03T22:02:19.233Z,4.41
2022-12-03T22:07:18.021Z,4.20
2022-12-03T22:12:16.809Z,3.84
2022-12-03T22:17:15.702Z,4.02
2022-12-03T22:22:14.476Z,4.09
2022-12-03T22:27:14.576Z,3.78
2022-12-03T22:32:13.288Z,3.96
2022-12-03T22:37:12.223Z,3.90
2022-12-03T22:42:11.043Z,3.78
2022-12-03T22:47:09.791Z,3.96
2022-12-03T22:52:08.574Z,3.82
2022-12-03T22:57:07.309Z,3.70
2022-12-03T23:02:06.031Z,4.01
2022-12-03T23:07:06.106Z,6.39
2022-12-03T23:12:05.166Z,4.35
2022-12-03T23:17:04.782Z,4.65
2022-12-03T23:22:03.723Z,4.12
2022-12-03T23:27:02.502Z,4.14
2022-12-03T23:32:01.169Z,4.23
2022-12-03T23:36:59.902Z,4.24
2022-12-03T23:41:58.543Z,4.33
2022-12-03T23:46:57.447Z,4.48
2022-12-03T23:51:56.278Z,3.91
2022-12-03T23:56:55.025Z,4.13
